createdAt,value
2022-09-15T00:01:24.263Z,23.40
2022-09-15T00:03:54.294Z,23.70
2022-09-15T00:06:22.295Z,23.20
2022-09-15T00:08:50.578Z,23.40
2022-09-15T00:11:21.094Z,23.30
2022-09-15T00:13:49.746Z,23.80
2022-09-15T00:16:19.479Z,23.70
2022-09-15T00:18:48.012Z,23.70
2022-09-15T00:21:20.246Z,23.30
2022-09-15T00:23:49.695Z,23.40
2022-09-15T00:26:20.547Z,23.30
2022-09-15T00:28:49.085Z,23.20
2022-09-15T00:31:19.708Z,23.30
2022-09-15T00:33:49.326Z,23.50
2022-09-15T00:36:19.869Z,23.60
2022-09-15T00:38:48.475Z,23.20
2022-09-15T00:41:20.088Z,23.50
2022-09-15T00:43:52.817Z,23.40
2022-09-15T00:46:24.920Z,23.40
2022-09-15T00:49:01.023Z,23.30
2022-09-15T00:51:37.817Z,23.70
2022-09-15T00:54:12.425Z,23.40
2022-09-15T00:56:43.937Z,23.30
2022-09-15T00:59:16.448Z,23.20
2022-09-15T01:01:47.534Z,23.20
2022-09-15T01:04:16.694Z,23.20
2022-09-15T01:06:51.668Z,23.30
2022-09-15T01:09:27.443Z,23.50
2022-09-15T01:11:55.416Z,23.50
2022-09-15T01:14:23.486Z,23.30
2022-09-15T01:17:01.618Z,23.80
2022-09-15T01:20:09.814Z,23.60
2022-09-15T01:22:58.047Z,23.40
2022-09-15T01:25:51.484Z,23.50
2022-09-15T01:28:55.501Z,23.30
2022-09-15T01:31:26.691Z,23.30
2022-09-15T01:34:02.447Z,23.50
2022-09-15T01:36:40.017Z,23.10
2022-09-15T01:39:15.138Z,23.40
2022-09-15T01:41:48.558Z,23.60
2022-09-15T01:44:22.498Z,23.30
2022-09-15T01:46:55.763Z,23.60
2022-09-15T01:49:30.453Z,23.20
2022-09-15T01:51:58.434Z,23.20
2022-09-15T01:54:32.640Z,23.10
2022-09-15T01:57:00.815Z,23.40
2022-09-15T01:59:29.354Z,23.30
2022-09-15T02:02:05.065Z,23.30
2022-09-15T02:04:38.134Z,23.20
2022-09-15T02:07:14.973Z,23.20
2022-09-15T02:09:50.724Z,23.10
2022-09-15T02:12:29.103Z,23.30
2022-09-15T02:15:00.956Z,23.20
2022-09-15T02:17:35.321Z,23.20
2022-09-15T02:20:10.078Z,23.20
2022-09-15T02:22:40.855Z,23.20
2022-09-15T02:25:13.363Z,23.40
2022-09-15T02:27:46.369Z,23.20
2022-09-15T02:30:18.052Z,23.30
2022-09-15T02:32:54.102Z,23.00
2022-09-15T02:35:23.374Z,23.40
2022-09-15T02:37:52.806Z,23.30
2022-09-15T02:40:21.540Z,23.10
2022-09-15T02:42:58.240Z,23.40
2022-09-15T02:45:27.416Z,23.10
2022-09-15T02:47:57.795Z,23.20
2022-09-15T02:50:27.320Z,23.10
2022-09-15T02:52:55.593Z,23.20
2022-09-15T02:55:28.917Z,23.00
2022-09-15T02:57:57.027Z,23.00
2022-09-15T03:00:25.654Z,23.10
2022-09-15T03:02:56.473Z,23.30
2022-09-15T03:05:26.681Z,23.20
2022-09-15T03:07:55.051Z,23.20
2022-09-15T03:10:24.692Z,23.20
2022-09-15T03:12:54.902Z,23.20
2022-09-15T03:15:25.868Z,23.20
2022-09-15T03:17:55.681Z,23.10
2022-09-15T03:20:27.916Z,23.20
2022-09-15T03:22:56.219Z,23.20
2022-09-15T03:25:26.699Z,23.30
2022-09-15T03:27:54.669Z,23.10
2022-09-15T03:30:22.599Z,23.00
2022-09-15T03:32:50.559Z,23.30
2022-09-15T03:35:19.908Z,23.20
2022-09-15T03:37:47.833Z,23.10
2022-09-15T03:40:16.018Z,23.10
2022-09-15T03:42:44.088Z,23.20
2022-09-15T03:45:12.059Z,23.10
2022-09-15T03:47:39.971Z,23.10
2022-09-15T03:50:08.469Z,23.10
2022-09-15T03:52:37.973Z,23.00
2022-09-15T03:55:07.250Z,23.00
2022-09-15T03:57:35.231Z,23.00
2022-09-15T04:00:05.174Z,23.20
2022-09-15T04:02:33.113Z,23.10
2022-09-15T04:05:01.112Z,23.10
2022-09-15T04:07:29.201Z,22.80
2022-09-15T04:09:58.452Z,23.00
2022-09-15T04:12:26.481Z,23.00
2022-09-15T04:14:54.859Z,23.40
2022-09-15T04:17:22.869Z,23.20
2022-09-15T04:19:50.885Z,23.10
2022-09-15T04:22:18.871Z,23.20
2022-09-15T04:24:47.937Z,23.00
2022-09-15T04:27:18.197Z,23.30
2022-09-15T04:29:46.236Z,23.00
2022-09-15T04:32:14.564Z,23.10
2022-09-15T04:34:42.492Z,23.10
2022-09-15T04:37:10.803Z,23.00
2022-09-15T04:39:39.215Z,23.20
2022-09-15T04:42:07.776Z,23.30
2022-09-15T04:44:37.145Z,22.70
2022-09-15T04:47:05.740Z,23.10
2022-09-15T04:49:33.841Z,23.20
2022-09-15T04:52:03.991Z,22.70
2022-09-15T04:54:35.614Z,23.00
2022-09-15T04:57:03.615Z,23.10
2022-09-15T04:59:31.509Z,23.00
2022-09-15T05:02:00.831Z,23.20
2022-09-15T05:04:28.969Z,23.00
2022-09-15T05:06:56.970Z,23.20
2022-09-15T05:09:26.249Z,23.20
2022-09-15T05:11:54.268Z,23.10
2022-09-15T05:14:22.206Z,23.00
2022-09-15T05:16:50.249Z,23.10
2022-09-15T05:19:19.564Z,23.10
2022-09-15T05:21:47.481Z,23.10
2022-09-15T05:24:15.511Z,23.00
2022-09-15T05:26:43.624Z,23.20
2022-09-15T05:29:11.589Z,22.70
2022-09-15T05:31:39.587Z,22.80
2022-09-15T05:34:08.071Z,23.10
2022-09-15T05:36:37.453Z,23.10
2022-09-15T05:39:05.601Z,23.00
2022-09-15T05:41:33.591Z,23.20
2022-09-15T05:44:01.583Z,22.60
2022-09-15T05:46:30.006Z,23.20
2022-09-15T05:48:59.368Z,23.00
2022-09-15T05:51:27.693Z,23.00
2022-09-15T05:53:57.365Z,23.10
2022-09-15T05:56:25.450Z,23.10
2022-09-15T05:58:53.938Z,23.10
2022-09-15T06:01:25.044Z,23.10
2022-09-15T06:03:53.880Z,23.60
2022-09-15T06:06:23.278Z,23.30
2022-09-15T06:08:58.111Z,23.30
2022-09-15T06:11:30.541Z,23.20
2022-09-15T06:14:01.147Z,23.60
2022-09-15T06:16:32.420Z,23.20
2022-09-15T06:19:01.347Z,23.10
2022-09-15T06:21:31.797Z,23.20
2022-09-15T06:24:01.888Z,23.00
2022-09-15T06:26:31.217Z,23.10
2022-09-15T06:29:02.242Z,23.20
2022-09-15T06:31:32.701Z,23.30
2022-09-15T06:34:01.651Z,22.80
2022-09-15T06:36:31.336Z,23.00
2022-09-15T06:38:59.876Z,23.30
2022-09-15T06:41:38.179Z,23.20
2022-09-15T06:44:16.605Z,23.50
2022-09-15T06:46:44.595Z,23.10
2022-09-15T06:49:12.569Z,23.10
2022-09-15T06:51:40.540Z,23.10
2022-09-15T06:54:08.890Z,23.50
2022-09-15T06:56:38.355Z,23.50
2022-09-15T06:59:07.473Z,23.30
2022-09-15T07:01:37.060Z,23.20
2022-09-15T07:04:08.363Z,23.10
2022-09-15T07:06:37.495Z,23.20
2022-09-15T07:09:06.749Z,23.60
2022-09-15T07:11:35.222Z,23.40
2022-09-15T07:14:03.171Z,23.40
2022-09-15T07:16:31.351Z,23.50
2022-09-15T07:19:03.359Z,23.30
2022-09-15T07:21:31.320Z,23.30
2022-09-15T07:24:01.592Z,23.40
2022-09-15T07:26:33.776Z,23.00
2022-09-15T07:29:04.395Z,23.10
2022-09-15T07:31:35.303Z,23.20
2022-09-15T07:34:05.498Z,23.20
2022-09-15T07:36:34.176Z,23.30
2022-09-15T07:39:03.517Z,23.30
2022-09-15T07:41:32.454Z,23.30
2022-09-15T07:44:02.014Z,23.10
2022-09-15T07:46:33.600Z,23.30
2022-09-15T07:49:03.020Z,23.40
2022-09-15T07:51:32.499Z,23.40
2022-09-15T07:54:00.723Z,23.30
2022-09-15T07:56:28.893Z,23.20
2022-09-15T07:58:57.628Z,23.40
2022-09-15T08:01:25.681Z,23.40
2022-09-15T08:03:54.044Z,23.30
2022-09-15T08:06:24.244Z,23.30
2022-09-15T08:08:59.795Z,23.30
2022-09-15T08:11:28.632Z,23.30
2022-09-15T08:13:56.785Z,23.00
2022-09-15T08:16:26.220Z,23.40
2022-09-15T08:18:55.694Z,23.40
2022-09-15T08:21:24.977Z,23.00
2022-09-15T08:23:56.473Z,23.40
2022-09-15T08:26:25.389Z,23.40
2022-09-15T08:28:53.936Z,23.50
2022-09-15T08:31:23.787Z,23.40
2022-09-15T08:33:54.249Z,23.60
2022-09-15T08:36:23.044Z,23.50
2022-09-15T08:38:51.016Z,23.50
2022-09-15T08:41:25.493Z,23.50
2022-09-15T08:44:00.062Z,23.20
2022-09-15T08:46:36.521Z,23.50
2022-09-15T08:49:10.641Z,23.80
2022-09-15T08:51:46.089Z,23.60
2022-09-15T08:54:21.600Z,23.60
2022-09-15T08:56:52.214Z,23.60
2022-09-15T08:59:22.129Z,23.70
2022-09-15T09:02:17.784Z,23.70
2022-09-15T09:05:11.281Z,23.60
2022-09-15T09:08:10.570Z,23.70
2022-09-15T09:10:49.372Z,23.90
2022-09-15T09:13:35.364Z,23.70
2022-09-15T09:16:29.165Z,23.90
2022-09-15T09:19:22.248Z,23.70
2022-09-15T09:21:57.180Z,24.20
2022-09-15T09:24:34.161Z,23.80
2022-09-15T09:27:02.109Z,24.10
2022-09-15T09:29:36.059Z,23.70
2022-09-15T09:32:16.798Z,23.90
2022-09-15T09:34:56.539Z,24.30
2022-09-15T09:37:24.825Z,23.90
2022-09-15T09:39:52.813Z,23.90
2022-09-15T09:42:24.767Z,24.20
2022-09-15T09:44:54.147Z,23.70
2022-09-15T09:47:22.580Z,23.90
2022-09-15T09:49:51.032Z,24.00
2022-09-15T09:52:35.169Z,24.00
2022-09-15T09:55:05.664Z,24.00
2022-09-15T09:57:40.664Z,24.30
2022-09-15T10:00:32.571Z,24.40
2022-09-15T10:03:14.165Z,24.50
2022-09-15T10:05:43.164Z,24.50
2022-09-15T10:08:19.278Z,23.90
2022-09-15T10:10:55.865Z,24.40
2022-09-15T10:13:24.391Z,24.10
2022-09-15T10:15:58.642Z,24.30
2022-09-15T10:18:34.429Z,24.50
2022-09-15T10:21:04.750Z,24.10
2022-09-15T10:23:34.732Z,24.00
2022-09-15T10:26:23.200Z,23.90
2022-09-15T10:29:15.325Z,24.20
2022-09-15T10:31:46.041Z,24.30
2022-09-15T10:34:32.428Z,24.10
2022-09-15T10:37:09.654Z,24.30
2022-09-15T10:39:52.480Z,24.40
2022-09-15T10:42:48.109Z,23.80
2022-09-15T10:45:27.510Z,24.20
2022-09-15T10:48:30.745Z,24.30
2022-09-15T10:51:08.152Z,24.10
2022-09-15T10:54:01.803Z,24.10
2022-09-15T10:56:35.264Z,24.40
2022-09-15T10:59:31.990Z,23.70
2022-09-15T11:02:21.400Z,23.80
2022-09-15T11:05:10.229Z,24.10
2022-09-15T11:07:50.137Z,23.80
2022-09-15T11:10:29.519Z,23.80
2022-09-15T11:13:08.355Z,23.80
2022-09-15T11:15:54.556Z,23.90
2022-09-15T11:18:50.805Z,24.00
2022-09-15T11:21:29.148Z,24.00
2022-09-15T11:24:14.261Z,23.70
2022-09-15T11:26:47.004Z,23.60
2022-09-15T11:29:21.399Z,24.00
2022-09-15T11:31:54.275Z,24.00
2022-09-15T11:34:28.012Z,23.90
2022-09-15T11:37:04.998Z,23.80
2022-09-15T11:39:39.900Z,23.90
2022-09-15T11:42:13.985Z,23.80
2022-09-15T11:44:45.017Z,23.80
2022-09-15T11:47:25.946Z,23.90
2022-09-15T11:49:58.816Z,23.70
2022-09-15T11:52:50.380Z,23.70
2022-09-15T11:55:28.422Z,23.90
2022-09-15T11:58:06.701Z,24.10
2022-09-15T12:00:40.291Z,24.40
2022-09-15T12:03:19.880Z,23.90
2022-09-15T12:05:54.580Z,24.30
2022-09-15T12:08:32.001Z,24.00
2022-09-15T12:11:06.165Z,23.90
2022-09-15T12:13:34.339Z,24.30
2022-09-15T12:16:03.944Z,24.10
2022-09-15T12:18:41.771Z,23.80
2022-09-15T12:21:18.484Z,23.70
2022-09-15T12:23:57.508Z,23.90
2022-09-15T12:26:28.621Z,23.80
2022-09-15T12:29:02.253Z,23.80
2022-09-15T12:31:38.933Z,24.40
2022-09-15T12:34:35.481Z,23.90
2022-09-15T12:37:13.093Z,24.50
2022-09-15T12:39:43.874Z,24.10
2022-09-15T12:42:20.266Z,24.30
2022-09-15T12:44:56.879Z,24.00
2022-09-15T12:47:32.621Z,24.10
2022-09-15T12:50:08.658Z,24.20
2022-09-15T12:52:45.817Z,24.20
2022-09-15T12:55:22.611Z,23.80
2022-09-15T12:57:57.180Z,23.90
2022-09-15T13:00:35.573Z,24.30
2022-09-15T13:03:06.080Z,23.90
2022-09-15T13:06:12.488Z,24.40
2022-09-15T13:08:56.040Z,24.30
2022-09-15T13:11:38.895Z,24.80
2022-09-15T13:14:20.709Z,24.40
2022-09-15T13:16:56.967Z,24.70
2022-09-15T13:19:32.129Z,24.80
2022-09-15T13:22:06.197Z,24.90
2022-09-15T13:24:48.716Z,25.00
2022-09-15T13:27:22.536Z,24.70
2022-09-15T13:29:56.632Z,24.90
2022-09-15T13:32:41.433Z,25.00
2022-09-15T13:35:42.124Z,24.90
2022-09-15T13:38:32.843Z,24.90
2022-09-15T13:41:48.463Z,25.10
2022-09-15T13:44:49.034Z,25.00
2022-09-15T13:47:33.321Z,24.80
2022-09-15T13:50:14.601Z,25.10
2022-09-15T13:53:37.159Z,25.00
2022-09-15T13:56:10.676Z,25.00
2022-09-15T13:59:05.345Z,25.00
2022-09-15T14:01:38.687Z,24.90
2022-09-15T14:04:12.032Z,24.80
2022-09-15T14:06:42.464Z,24.70
2022-09-15T14:09:15.952Z,24.90
2022-09-15T14:11:46.228Z,24.60
2022-09-15T14:14:34.919Z,24.60
2022-09-15T14:17:04.840Z,24.80
2022-09-15T14:19:35.716Z,24.90
2022-09-15T14:22:26.023Z,24.40
2022-09-15T14:24:55.291Z,24.60
2022-09-15T14:27:25.899Z,24.00
2022-09-15T14:29:57.621Z,23.90
2022-09-15T14:32:29.116Z,24.00
2022-09-15T14:35:00.022Z,24.10
2022-09-15T14:37:31.830Z,23.80
2022-09-15T14:40:02.054Z,23.70
2022-09-15T14:42:33.297Z,23.80
2022-09-15T14:48:08.941Z,23.80
2022-09-15T14:50:37.994Z,23.70
2022-09-15T14:53:08.918Z,23.60
2022-09-15T14:55:45.868Z,23.60
2022-09-15T14:58:21.703Z,23.90
2022-09-15T15:00:56.456Z,23.80
2022-09-15T15:03:34.835Z,23.90
2022-09-15T15:06:28.349Z,24.30
2022-09-15T15:09:01.640Z,24.00
2022-09-15T15:11:31.509Z,23.80
2022-09-15T15:13:59.841Z,23.90
2022-09-15T15:16:31.706Z,23.80
2022-09-15T15:19:01.490Z,24.20
2022-09-15T15:21:38.739Z,24.20
2022-09-15T15:24:18.244Z,23.90
2022-09-15T15:26:47.771Z,24.20
2022-09-15T15:29:43.048Z,23.90
2022-09-15T15:32:14.725Z,23.90
2022-09-15T15:34:51.891Z,24.00
2022-09-15T15:37:27.851Z,24.10
2022-09-15T15:39:57.427Z,23.90
2022-09-15T15:42:28.391Z,24.10
2022-09-15T15:45:02.762Z,23.80
2022-09-15T15:47:33.804Z,24.30
2022-09-15T15:50:13.714Z,24.30
2022-09-15T15:52:43.755Z,24.00
2022-09-15T15:55:14.869Z,24.10
2022-09-15T15:57:43.365Z,24.20
2022-09-15T16:00:21.579Z,24.10
2022-09-15T16:02:50.454Z,23.70
2022-09-15T16:05:22.984Z,24.30
2022-09-15T16:07:53.247Z,23.80
2022-09-15T16:10:25.879Z,23.90
2022-09-15T16:12:53.828Z,23.70
2022-09-15T16:15:22.855Z,24.00
2022-09-15T16:17:50.821Z,23.70
2022-09-15T16:20:20.544Z,24.10
2022-09-15T16:22:48.941Z,23.70
2022-09-15T16:25:19.722Z,23.70
2022-09-15T16:27:47.689Z,23.80
2022-09-15T16:30:15.872Z,23.70
2022-09-15T16:32:43.937Z,23.90
2022-09-15T16:35:26.581Z,23.80
2022-09-15T16:37:54.552Z,23.80
2022-09-15T16:40:23.689Z,23.60
2022-09-15T16:42:51.853Z,23.90
2022-09-15T16:45:25.857Z,23.90
2022-09-15T16:47:53.844Z,23.70
2022-09-15T16:50:23.188Z,24.20
2022-09-15T16:52:51.521Z,23.70
2022-09-15T16:55:29.531Z,24.10
2022-09-15T16:57:57.981Z,23.70
2022-09-15T17:00:26.051Z,24.00
2022-09-15T17:02:53.989Z,23.80
2022-09-15T17:05:29.846Z,24.30
2022-09-15T17:07:58.148Z,24.30
2022-09-15T17:10:26.309Z,23.80
2022-09-15T17:12:54.465Z,23.80
2022-09-15T17:15:27.396Z,24.10
2022-09-15T17:17:55.870Z,24.10
2022-09-15T17:20:26.070Z,24.30
2022-09-15T17:22:55.033Z,24.20
2022-09-15T17:25:28.617Z,23.70
2022-09-15T17:27:57.969Z,24.10
2022-09-15T17:30:29.999Z,23.90
2022-09-15T17:33:03.829Z,24.00
2022-09-15T17:35:36.128Z,23.70
2022-09-15T17:38:06.315Z,23.70
2022-09-15T17:40:35.813Z,23.80
2022-09-15T17:43:04.588Z,24.20
2022-09-15T17:45:35.738Z,24.00
2022-09-15T17:48:04.899Z,23.60
2022-09-15T17:50:37.888Z,23.80
2022-09-15T17:53:12.742Z,24.10
2022-09-15T17:55:41.354Z,23.90
2022-09-15T17:58:09.993Z,24.00
2022-09-15T18:00:40.636Z,23.60
2022-09-15T18:03:20.021Z,23.90
2022-09-15T18:05:50.284Z,23.70
2022-09-15T18:08:18.753Z,23.70
2022-09-15T18:10:46.998Z,23.70
2022-09-15T18:13:17.726Z,24.10
2022-09-15T18:15:45.810Z,23.70
2022-09-15T18:18:16.754Z,23.80
2022-09-15T18:20:45.165Z,23.60
2022-09-15T18:23:17.135Z,23.70
2022-09-15T18:25:47.276Z,23.60
2022-09-15T18:28:16.288Z,23.80
2022-09-15T18:30:46.520Z,23.70
2022-09-15T18:33:18.171Z,23.50
2022-09-15T18:35:47.902Z,23.60
2022-09-15T18:38:17.699Z,23.60
2022-09-15T18:40:46.870Z,23.70
2022-09-15T18:43:14.843Z,23.90
2022-09-15T18:45:43.454Z,23.90
2022-09-15T18:48:13.369Z,23.80
2022-09-15T18:50:41.854Z,23.50
2022-09-15T18:53:10.123Z,23.40
2022-09-15T18:55:42.119Z,23.80
2022-09-15T18:58:10.520Z,23.60
2022-09-15T19:00:38.817Z,23.50
2022-09-15T19:03:09.304Z,23.70
2022-09-15T19:05:38.626Z,23.50
2022-09-15T19:08:08.240Z,23.60
2022-09-15T19:10:38.178Z,23.60
2022-09-15T19:13:07.618Z,23.60
2022-09-15T19:15:35.820Z,23.70
2022-09-15T19:18:03.934Z,23.50
2022-09-15T19:20:32.232Z,23.60
2022-09-15T19:23:00.177Z,23.70
2022-09-15T19:25:28.143Z,23.70
2022-09-15T19:27:56.094Z,23.50
2022-09-15T19:30:25.408Z,23.60
2022-09-15T19:32:53.554Z,23.60
2022-09-15T19:35:21.582Z,23.60
2022-09-15T19:37:49.695Z,24.00
2022-09-15T19:40:20.728Z,23.70
2022-09-15T19:42:51.012Z,23.70
2022-09-15T19:45:19.044Z,23.90
2022-09-15T19:47:48.366Z,23.40
2022-09-15T19:50:16.502Z,23.70
2022-09-15T19:52:44.942Z,23.90
2022-09-15T19:55:13.529Z,23.60
2022-09-15T19:57:42.724Z,23.50
2022-09-15T20:00:14.366Z,23.60
2022-09-15T20:02:42.465Z,23.40
2022-09-15T20:05:12.425Z,23.60
2022-09-15T20:07:40.418Z,23.40
2022-09-15T20:10:08.840Z,23.60
2022-09-15T20:12:36.845Z,23.50
2022-09-15T20:15:06.182Z,23.60
2022-09-15T20:17:34.312Z,23.60
2022-09-15T20:20:02.863Z,23.70
2022-09-15T20:22:32.267Z,23.80
2022-09-15T20:25:00.339Z,23.80
2022-09-15T20:27:28.504Z,23.40
2022-09-15T20:29:57.140Z,23.80
2022-09-15T20:32:28.381Z,23.70
2022-09-15T20:34:56.970Z,23.70
2022-09-15T20:37:25.237Z,23.60
2022-09-15T20:39:55.165Z,23.90
2022-09-15T20:42:23.499Z,23.60
2022-09-15T20:44:51.665Z,23.80
2022-09-15T20:47:19.622Z,23.50
2022-09-15T20:49:47.585Z,23.60
2022-09-15T20:52:15.589Z,23.40
2022-09-15T20:54:43.952Z,23.50
2022-09-15T20:57:13.265Z,23.30
2022-09-15T20:59:41.211Z,23.20
2022-09-15T21:02:09.212Z,23.00
2022-09-15T21:04:37.187Z,23.30
2022-09-15T21:07:05.209Z,23.50
2022-09-15T21:09:33.405Z,23.10
2022-09-15T21:12:01.385Z,23.40
2022-09-15T21:14:30.757Z,23.10
2022-09-15T21:16:58.669Z,23.20
2022-09-15T21:19:26.741Z,23.40
2022-09-15T21:21:55.657Z,23.50
2022-09-15T21:24:23.924Z,23.20
2022-09-15T21:27:10.737Z,23.40
2022-09-15T21:29:40.081Z,23.30
2022-09-15T21:32:08.218Z,23.40
2022-09-15T21:34:36.226Z,23.20
2022-09-15T21:37:04.215Z,22.90
2022-09-15T21:39:32.170Z,23.00
2022-09-15T21:42:00.145Z,23.30
2022-09-15T21:44:28.224Z,23.20
2022-09-15T21:46:58.444Z,22.90
2022-09-15T21:49:26.381Z,23.10
2022-09-15T21:51:54.347Z,23.20
2022-09-15T21:54:22.745Z,23.10
2022-09-15T21:56:50.940Z,22.80
2022-09-15T21:59:19.227Z,23.10
2022-09-15T22:01:48.394Z,22.80
2022-09-15T22:04:17.784Z,23.00
2022-09-15T22:06:46.809Z,22.90
2022-09-15T22:09:17.142Z,22.70
2022-09-15T22:11:45.289Z,22.70
2022-09-15T22:14:14.197Z,23.20
2022-09-15T22:16:43.765Z,22.90
2022-09-15T22:19:13.151Z,23.20
2022-09-15T22:21:42.788Z,22.90
2022-09-15T22:24:13.503Z,22.90
2022-09-15T22:26:43.352Z,22.60
2022-09-15T22:29:11.982Z,22.90
2022-09-15T22:31:40.811Z,23.10
2022-09-15T22:34:08.906Z,22.60
2022-09-15T22:36:36.878Z,22.70
2022-09-15T22:39:07.644Z,23.10
2022-09-15T22:41:38.185Z,22.70
2022-09-15T22:44:07.607Z,22.70
2022-09-15T22:46:35.810Z,23.00
2022-09-15T22:49:03.847Z,22.70
2022-09-15T22:51:31.818Z,23.10
2022-09-15T22:54:02.853Z,22.80
2022-09-15T22:56:32.303Z,23.10
2022-09-15T22:59:00.588Z,22.60
2022-09-15T23:01:30.993Z,22.60
2022-09-15T23:04:02.131Z,22.50
2022-09-15T23:06:32.601Z,22.90
2022-09-15T23:09:03.205Z,22.60
2022-09-15T23:11:33.193Z,22.80
2022-09-15T23:14:02.495Z,22.70
2022-09-15T23:16:32.211Z,22.90
2022-09-15T23:19:01.219Z,22.50
2022-09-15T23:21:29.676Z,22.60
2022-09-15T23:23:59.122Z,22.60
2022-09-15T23:26:28.146Z,22.50
2022-09-15T23:28:57.492Z,22.60
2022-09-15T23:31:25.492Z,22.70
2022-09-15T23:33:53.525Z,22.80
2022-09-15T23:36:21.846Z,23.00
2022-09-15T23:38:50.602Z,22.70
2022-09-15T23:41:19.454Z,22.70
2022-09-15T23:43:47.814Z,22.80
2022-09-15T23:46:17.305Z,22.70
2022-09-15T23:48:45.649Z,22.70
2022-09-15T23:51:13.790Z,22.60
2022-09-15T23:53:41.817Z,22.70
2022-09-15T23:56:09.918Z,22.60
2022-09-15T23:58:38.169Z,22.70
